createdAt,value
2018-08-31T00:00:05.161Z,0.00
2018-08-31T00:01:05.161Z,0.00
2018-08-31T00:02:05.148Z,0.00
2018-08-31T00:03:05.170Z,0.00
2018-08-31T00:04:05.141Z,0.00
2018-08-31T00:05:05.118Z,0.00
2018-08-31T00:06:05.100Z,0.00
2018-08-31T00:07:05.086Z,0.00
2018-08-31T00:08:05.107Z,0.00
2018-08-31T00:09:05.090Z,0.00
2018-08-31T00:10:05.068Z,0.00
2018-08-31T00:11:05.075Z,0.00
2018-08-31T00:12:05.053Z,0.00
2018-08-31T00:13:05.028Z,0.00
2018-08-31T00:14:05.016Z,0.00
2018-08-31T00:15:05.024Z,0.00
2018-08-31T00:16:04.995Z,0.00
2018-08-31T00:17:04.992Z,0.00
2018-08-31T00:18:05.011Z,0.00
2018-08-31T00:19:04.968Z,0.00
2018-08-31T00:20:04.982Z,0.00
2018-08-31T00:21:04.972Z,0.00
2018-08-31T00:22:04.938Z,0.00
2018-08-31T00:23:04.927Z,0.00
2018-08-31T00:24:04.907Z,0.00
2018-08-31T00:25:04.917Z,0.00
2018-08-31T00:26:04.914Z,0.00
2018-08-31T00:27:04.894Z,0.00
2018-08-31T00:28:04.863Z,0.00
2018-08-31T00:29:04.862Z,0.00
2018-08-31T00:30:04.843Z,0.00
2018-08-31T00:31:04.863Z,0.00
2018-08-31T00:32:04.850Z,0.00
2018-08-31T00:33:04.821Z,0.00
2018-08-31T00:34:04.816Z,0.00
2018-08-31T00:35:04.800Z,0.00
2018-08-31T00:36:04.816Z,0.00
2018-08-31T00:37:04.784Z,0.00
2018-08-31T00:38:04.783Z,0.00
2018-08-31T00:39:04.790Z,0.00
2018-08-31T00:40:04.747Z,0.00
2018-08-31T00:41:04.715Z,0.00
2018-08-31T00:42:04.723Z,0.00
2018-08-31T00:43:04.715Z,0.00
2018-08-31T00:44:04.754Z,0.00
2018-08-31T00:45:04.699Z,0.00
2018-08-31T00:46:04.695Z,0.00
2018-08-31T00:47:04.671Z,0.00
2018-08-31T00:48:04.653Z,0.00
2018-08-31T00:49:04.632Z,0.00
2018-08-31T00:50:04.651Z,0.00
2018-08-31T00:51:04.614Z,0.00
2018-08-31T00:52:04.607Z,0.00
2018-08-31T00:53:04.634Z,0.00
2018-08-31T00:54:04.611Z,0.00
2018-08-31T00:55:04.654Z,0.00
2018-08-31T00:56:09.379Z,0.00
2018-08-31T00:57:04.563Z,0.00
2018-08-31T00:58:04.548Z,0.00
2018-08-31T00:59:04.542Z,0.00
2018-08-31T01:00:04.545Z,0.00
2018-08-31T01:01:04.524Z,0.00
2018-08-31T01:02:04.539Z,0.00
2018-08-31T01:03:04.484Z,0.00
2018-08-31T01:04:04.495Z,0.00
2018-08-31T01:05:04.472Z,0.00
2018-08-31T01:06:04.495Z,0.00
2018-08-31T01:07:04.499Z,0.00
2018-08-31T01:08:04.467Z,0.00
2018-08-31T01:09:04.433Z,0.00
2018-08-31T01:10:04.424Z,0.00
2018-08-31T01:11:04.440Z,0.00
2018-08-31T01:12:04.392Z,0.00
2018-08-31T01:13:04.440Z,0.00
2018-08-31T01:14:04.414Z,0.00
2018-08-31T01:15:04.410Z,0.00
2018-08-31T01:16:04.368Z,0.00
2018-08-31T01:17:04.358Z,0.00
2018-08-31T01:18:04.342Z,0.00
2018-08-31T01:19:04.349Z,0.00
2018-08-31T01:20:04.323Z,0.00
2018-08-31T01:21:04.322Z,0.00
2018-08-31T01:22:04.286Z,0.00
2018-08-31T01:23:04.279Z,0.00
2018-08-31T01:24:04.268Z,0.00
2018-08-31T01:25:04.266Z,0.00
2018-08-31T01:26:04.261Z,0.00
2018-08-31T01:27:04.224Z,0.00
2018-08-31T01:28:04.255Z,0.00
2018-08-31T01:29:04.239Z,0.00
2018-08-31T01:30:04.201Z,0.00
2018-08-31T01:31:04.200Z,0.00
2018-08-31T01:32:04.212Z,0.00
2018-08-31T01:33:04.199Z,0.00
2018-08-31T01:34:04.155Z,0.00
2018-08-31T01:35:04.160Z,0.00
2018-08-31T01:36:04.164Z,0.00
2018-08-31T01:37:04.129Z,0.00
2018-08-31T01:38:04.129Z,0.00
2018-08-31T01:39:04.120Z,0.00
2018-08-31T01:40:04.091Z,0.00
2018-08-31T01:41:04.088Z,0.00
2018-08-31T01:42:04.097Z,0.00
2018-08-31T01:43:04.078Z,0.00
2018-08-31T01:44:04.074Z,0.00
2018-08-31T01:45:04.024Z,0.00
2018-08-31T01:46:04.034Z,0.00
2018-08-31T01:47:04.013Z,0.00
2018-08-31T01:48:04.015Z,0.00
2018-08-31T01:49:04.014Z,0.00
2018-08-31T01:50:04.072Z,0.00
2018-08-31T01:51:03.988Z,0.00
2018-08-31T01:52:03.985Z,0.00
2018-08-31T01:53:03.954Z,0.00
2018-08-31T01:54:03.953Z,0.00
2018-08-31T01:55:03.932Z,0.00
2018-08-31T01:56:04.081Z,0.00
2018-08-31T01:57:03.917Z,0.00
2018-08-31T01:58:08.696Z,0.00
2018-08-31T01:59:03.895Z,0.00
2018-08-31T02:00:03.872Z,0.00
2018-08-31T02:01:03.899Z,0.00
2018-08-31T02:02:03.897Z,0.00
2018-08-31T02:03:03.882Z,0.00
2018-08-31T02:04:03.859Z,0.00
2018-08-31T02:05:03.832Z,0.00
2018-08-31T02:06:03.849Z,0.00
2018-08-31T02:07:03.832Z,0.00
2018-08-31T02:08:03.830Z,0.00
2018-08-31T02:09:03.787Z,0.00
2018-08-31T02:10:03.797Z,0.00
2018-08-31T02:11:03.809Z,0.00
2018-08-31T02:12:03.742Z,0.00
2018-08-31T02:13:03.738Z,0.00
2018-08-31T02:14:03.752Z,0.00
2018-08-31T02:15:03.788Z,0.00
2018-08-31T02:16:03.705Z,0.00
2018-08-31T02:17:03.714Z,0.00
2018-08-31T02:18:03.689Z,0.00
2018-08-31T02:19:03.706Z,0.00
2018-08-31T02:20:03.756Z,0.00
2018-08-31T02:21:03.654Z,0.00
2018-08-31T02:22:03.647Z,0.00
2018-08-31T02:23:03.631Z,0.00
2018-08-31T02:24:03.644Z,0.00
2018-08-31T02:25:03.647Z,0.00
2018-08-31T02:26:03.602Z,0.00
2018-08-31T02:27:03.591Z,0.00
2018-08-31T02:28:03.597Z,0.00
2018-08-31T02:29:03.557Z,0.00
2018-08-31T02:30:03.587Z,0.00
2018-08-31T02:31:03.596Z,0.00
2018-08-31T02:32:03.563Z,0.00
2018-08-31T02:33:03.524Z,0.00
2018-08-31T02:34:03.527Z,0.00
2018-08-31T02:35:03.522Z,0.00
2018-08-31T02:36:03.496Z,0.00
2018-08-31T02:37:03.513Z,0.00
2018-08-31T02:38:03.540Z,0.00
2018-08-31T02:39:03.483Z,0.00
2018-08-31T02:40:03.458Z,0.00
2018-08-31T02:41:03.466Z,0.00
2018-08-31T02:42:03.439Z,0.00
2018-08-31T02:43:03.444Z,0.00
2018-08-31T02:44:03.431Z,0.00
2018-08-31T02:45:03.430Z,0.00
2018-08-31T02:46:03.389Z,0.00
2018-08-31T02:47:03.399Z,0.00
2018-08-31T02:48:03.373Z,0.00
2018-08-31T02:49:03.417Z,0.00
2018-08-31T02:50:03.346Z,0.00
2018-08-31T02:51:03.321Z,0.00
2018-08-31T02:52:03.349Z,0.00
2018-08-31T02:53:03.329Z,0.00
2018-08-31T02:54:03.308Z,0.00
2018-08-31T02:55:03.314Z,0.00
2018-08-31T02:56:03.284Z,0.00
2018-08-31T02:57:03.264Z,0.00
2018-08-31T02:58:03.338Z,0.00
2018-08-31T02:59:08.056Z,0.00
2018-08-31T03:00:03.253Z,0.00
2018-08-31T03:01:03.272Z,0.00
2018-08-31T03:02:03.242Z,0.00
2018-08-31T03:03:03.213Z,0.00
2018-08-31T03:04:03.198Z,0.00
2018-08-31T03:05:03.191Z,0.00
2018-08-31T03:06:03.212Z,0.00
2018-08-31T03:07:03.195Z,0.00
2018-08-31T03:08:03.137Z,0.00
2018-08-31T03:09:03.146Z,0.00
2018-08-31T03:10:03.155Z,0.00
2018-08-31T03:11:03.132Z,0.00
2018-08-31T03:12:03.113Z,0.00
2018-08-31T03:13:03.155Z,0.00
2018-08-31T03:14:03.092Z,0.00
2018-08-31T03:15:03.091Z,0.00
2018-08-31T03:16:03.098Z,0.00
2018-08-31T03:17:03.060Z,0.00
2018-08-31T03:18:03.056Z,0.00
2018-08-31T03:19:03.068Z,0.00
2018-08-31T03:20:03.051Z,0.00
2018-08-31T03:21:03.016Z,0.00
2018-08-31T03:22:02.995Z,0.00
2018-08-31T03:23:02.991Z,0.00
2018-08-31T03:24:02.970Z,0.00
2018-08-31T03:25:03.021Z,0.00
2018-08-31T03:26:02.968Z,0.00
2018-08-31T03:27:02.986Z,0.00
2018-08-31T03:28:02.938Z,0.00
2018-08-31T03:29:02.928Z,0.00
2018-08-31T03:30:02.947Z,0.00
2018-08-31T03:31:02.939Z,0.00
2018-08-31T03:32:02.887Z,0.00
2018-08-31T03:33:02.885Z,0.00
2018-08-31T03:34:02.892Z,0.00
2018-08-31T03:35:02.875Z,0.00
2018-08-31T03:36:02.844Z,0.00
2018-08-31T03:37:02.913Z,0.00
2018-08-31T03:38:02.844Z,0.00
2018-08-31T03:39:02.817Z,0.00
2018-08-31T03:40:02.802Z,0.00
2018-08-31T03:41:02.832Z,0.00
2018-08-31T03:42:02.792Z,0.00
2018-08-31T03:43:02.793Z,0.00
2018-08-31T03:44:02.759Z,0.00
2018-08-31T03:45:02.757Z,0.00
2018-08-31T03:46:02.739Z,0.00
2018-08-31T03:47:02.761Z,0.00
2018-08-31T03:48:02.739Z,0.00
2018-08-31T03:49:02.734Z,0.00
2018-08-31T03:50:02.703Z,0.00
2018-08-31T03:51:02.680Z,0.00
2018-08-31T03:52:02.675Z,0.00
2018-08-31T03:53:02.684Z,0.00
2018-08-31T03:54:02.643Z,0.00
2018-08-31T03:55:02.700Z,0.00
2018-08-31T03:56:02.644Z,0.00
2018-08-31T03:57:02.971Z,0.00
2018-08-31T03:58:02.651Z,0.00
2018-08-31T03:59:02.707Z,0.00
2018-08-31T04:00:02.597Z,0.00
2018-08-31T04:01:07.393Z,0.00
2018-08-31T04:02:02.593Z,0.00
2018-08-31T04:03:02.565Z,0.00
2018-08-31T04:04:02.561Z,0.00
2018-08-31T04:05:02.530Z,0.00
2018-08-31T04:06:02.540Z,0.00
2018-08-31T04:07:02.586Z,0.00
2018-08-31T04:08:02.513Z,0.00
2018-08-31T04:09:02.505Z,0.00
2018-08-31T04:10:02.492Z,0.00
2018-08-31T04:11:02.476Z,0.00
2018-08-31T04:12:02.467Z,0.00
2018-08-31T04:13:02.528Z,0.00
2018-08-31T04:14:02.442Z,0.00
2018-08-31T04:15:02.582Z,0.00
2018-08-31T04:16:02.425Z,0.00
2018-08-31T04:17:02.427Z,0.00
2018-08-31T04:18:02.398Z,0.00
2018-08-31T04:19:02.435Z,0.00
2018-08-31T04:20:02.384Z,0.00
2018-08-31T04:21:02.376Z,0.00
2018-08-31T04:22:02.362Z,0.00
2018-08-31T04:23:02.379Z,0.00
2018-08-31T04:24:02.351Z,0.00
2018-08-31T04:25:02.383Z,0.00
2018-08-31T04:26:02.313Z,0.00
2018-08-31T04:27:02.310Z,0.00
2018-08-31T04:28:02.287Z,0.00
2018-08-31T04:29:02.270Z,0.00
2018-08-31T04:30:02.303Z,4.00
2018-08-31T04:31:02.328Z,4.00
2018-08-31T04:32:02.273Z,0.00
2018-08-31T04:33:02.237Z,0.00
2018-08-31T04:34:02.237Z,4.00
2018-08-31T04:35:02.211Z,4.00
2018-08-31T04:36:02.209Z,4.00
2018-08-31T04:37:02.259Z,4.00
2018-08-31T04:38:02.208Z,0.00
2018-08-31T04:39:02.164Z,4.00
2018-08-31T04:40:02.174Z,4.00
2018-08-31T04:41:02.144Z,4.00
2018-08-31T04:42:02.147Z,8.00
2018-08-31T04:43:02.300Z,4.00
2018-08-31T04:44:02.140Z,4.00
2018-08-31T04:45:02.109Z,8.00
2018-08-31T04:46:02.102Z,4.00
2018-08-31T04:47:02.086Z,8.00
2018-08-31T04:48:02.072Z,8.00
2018-08-31T04:49:02.101Z,8.00
2018-08-31T04:50:02.060Z,8.00
2018-08-31T04:51:02.043Z,12.00
2018-08-31T04:52:02.032Z,8.00
2018-08-31T04:53:02.028Z,12.00
2018-08-31T04:54:02.012Z,12.00
2018-08-31T04:55:02.028Z,12.00
2018-08-31T04:56:01.993Z,12.00
2018-08-31T04:57:02.031Z,12.00
2018-08-31T04:58:01.992Z,16.00
2018-08-31T04:59:02.031Z,16.00
2018-08-31T05:00:02.018Z,16.00
2018-08-31T05:01:01.972Z,20.00
2018-08-31T05:02:01.952Z,20.00
2018-08-31T05:03:06.689Z,24.00
2018-08-31T05:04:01.904Z,24.00
2018-08-31T05:05:01.920Z,28.00
2018-08-31T05:06:01.883Z,28.00
2018-08-31T05:07:01.916Z,28.00
2018-08-31T05:08:01.853Z,32.00
2018-08-31T05:09:01.853Z,32.00
2018-08-31T05:10:01.816Z,32.00
2018-08-31T05:11:01.817Z,36.00
2018-08-31T05:12:01.825Z,36.00
2018-08-31T05:13:01.856Z,36.00
2018-08-31T05:14:01.791Z,40.00
2018-08-31T05:15:01.769Z,40.00
2018-08-31T05:16:01.795Z,40.00
2018-08-31T05:17:01.804Z,40.00
2018-08-31T05:18:01.751Z,44.00
2018-08-31T05:19:01.862Z,48.00
2018-08-31T05:20:01.744Z,48.00
2018-08-31T05:21:01.696Z,52.00
2018-08-31T05:22:01.676Z,52.00
2018-08-31T05:23:01.744Z,52.00
2018-08-31T05:24:01.681Z,52.00
2018-08-31T05:25:01.714Z,52.00
2018-08-31T05:26:01.689Z,56.00
2018-08-31T05:27:01.635Z,56.00
2018-08-31T05:28:01.639Z,60.00
2018-08-31T05:29:01.618Z,60.00
2018-08-31T05:30:01.901Z,60.00
2018-08-31T05:31:01.711Z,64.00
2018-08-31T05:32:01.576Z,68.00
2018-08-31T05:33:01.576Z,76.00
2018-08-31T05:34:01.607Z,76.00
2018-08-31T05:35:01.593Z,80.00
2018-08-31T05:37:14.569Z,84.00
2018-08-31T05:38:11.467Z,88.00
2018-08-31T05:39:11.466Z,92.00
2018-08-31T05:40:11.429Z,100.00
2018-08-31T05:41:11.438Z,108.00
2018-08-31T05:42:11.489Z,116.00
2018-08-31T05:43:11.443Z,128.00
2018-08-31T05:44:11.651Z,136.00
2018-08-31T05:45:11.372Z,140.00
2018-08-31T05:46:11.434Z,144.00
2018-08-31T05:47:11.359Z,148.00
2018-08-31T05:48:11.434Z,152.00
2018-08-31T05:49:11.334Z,160.00
2018-08-31T05:50:11.327Z,164.00
2018-08-31T05:51:11.336Z,172.00
2018-08-31T05:52:11.384Z,176.00
2018-08-31T05:53:11.322Z,180.00
2018-08-31T05:54:11.337Z,188.00
2018-08-31T05:55:11.288Z,192.00
2018-08-31T05:56:11.267Z,208.00
2018-08-31T05:57:11.233Z,212.00
2018-08-31T05:58:11.244Z,216.00
2018-08-31T05:59:11.219Z,224.00
2018-08-31T06:00:11.290Z,228.00
2018-08-31T06:01:11.320Z,228.00
2018-08-31T06:02:11.192Z,232.00
2018-08-31T06:03:11.187Z,240.00
2018-08-31T06:04:16.070Z,240.00
2018-08-31T06:05:11.153Z,244.00
2018-08-31T06:06:11.182Z,252.00
2018-08-31T06:07:11.167Z,252.00
2018-08-31T06:08:11.151Z,256.00
2018-08-31T06:09:11.128Z,260.00
2018-08-31T06:10:11.096Z,264.00
2018-08-31T06:11:11.101Z,268.00
2018-08-31T06:12:11.124Z,276.00
2018-08-31T06:13:11.081Z,284.00
2018-08-31T06:14:11.060Z,296.00
2018-08-31T06:15:11.107Z,304.00
2018-08-31T06:16:11.063Z,320.00
2018-08-31T06:17:11.034Z,336.00
2018-08-31T06:18:11.071Z,352.00
2018-08-31T06:19:11.020Z,368.00
2018-08-31T06:20:11.002Z,388.00
2018-08-31T06:21:11.112Z,400.00
2018-08-31T06:22:11.010Z,416.00
2018-08-31T06:23:10.972Z,452.00
2018-08-31T06:24:11.001Z,664.00
2018-08-31T06:25:10.995Z,776.00
2018-08-31T06:26:10.947Z,740.00
2018-08-31T06:27:10.977Z,480.00
2018-08-31T06:28:10.899Z,524.00
2018-08-31T06:29:10.910Z,464.00
2018-08-31T06:30:10.952Z,428.00
2018-08-31T06:31:10.889Z,408.00
2018-08-31T06:32:10.884Z,392.00
2018-08-31T06:33:10.857Z,392.00
2018-08-31T06:34:10.841Z,400.00
2018-08-31T06:35:10.837Z,404.00
2018-08-31T06:36:10.873Z,408.00
2018-08-31T06:37:10.803Z,424.00
2018-08-31T06:38:10.814Z,432.00
2018-08-31T06:39:31.817Z,448.00
2018-08-31T06:40:10.786Z,448.00
2018-08-31T06:41:10.756Z,444.00
2018-08-31T06:42:10.822Z,424.00
2018-08-31T06:43:10.928Z,424.00
2018-08-31T06:44:10.781Z,428.00
2018-08-31T06:46:19.796Z,460.00
2018-08-31T06:47:19.696Z,512.00
2018-08-31T06:48:19.657Z,536.00
2018-08-31T06:49:19.597Z,488.00
2018-08-31T06:50:19.595Z,492.00
2018-08-31T06:51:19.628Z,476.00
2018-08-31T06:52:19.538Z,460.00
2018-08-31T06:53:19.611Z,452.00
2018-08-31T06:54:19.538Z,452.00
2018-08-31T06:55:19.530Z,464.00
2018-08-31T06:56:23.948Z,460.00
2018-08-31T06:57:19.488Z,448.00
2018-08-31T06:58:19.554Z,448.00
2018-08-31T06:59:19.569Z,456.00
2018-08-31T07:00:19.472Z,456.00
2018-08-31T07:01:19.526Z,476.00
2018-08-31T07:02:19.488Z,480.00
2018-08-31T07:03:19.515Z,456.00
2018-08-31T07:04:19.531Z,448.00
2018-08-31T07:05:24.228Z,452.00
2018-08-31T07:06:19.434Z,500.00
2018-08-31T07:07:19.379Z,528.00
2018-08-31T07:08:19.389Z,488.00
2018-08-31T07:09:19.380Z,520.00
2018-08-31T07:10:19.405Z,508.00
2018-08-31T07:11:19.353Z,572.00
2018-08-31T07:12:19.404Z,496.00
2018-08-31T07:13:19.338Z,464.00
2018-08-31T07:14:19.381Z,456.00
2018-08-31T07:15:19.361Z,448.00
2018-08-31T07:16:19.281Z,440.00
2018-08-31T07:17:19.315Z,432.00
2018-08-31T07:18:19.311Z,428.00
2018-08-31T07:19:19.345Z,420.00
2018-08-31T07:20:19.361Z,424.00
2018-08-31T07:21:19.744Z,428.00
2018-08-31T07:22:20.799Z,440.00
2018-08-31T07:24:58.935Z,424.00
2018-08-31T07:25:28.917Z,432.00
2018-08-31T07:26:28.368Z,468.00
2018-08-31T07:27:28.308Z,560.00
2018-08-31T07:28:28.209Z,488.00
2018-08-31T07:29:28.226Z,504.00
2018-08-31T07:30:28.749Z,504.00
2018-08-31T07:31:28.164Z,500.00
2018-08-31T07:32:32.181Z,496.00
2018-08-31T07:33:28.360Z,484.00
2018-08-31T07:34:28.132Z,476.00
2018-08-31T07:35:28.185Z,480.00
2018-08-31T07:36:28.124Z,484.00
2018-08-31T07:37:28.048Z,476.00
2018-08-31T07:38:28.192Z,480.00
2018-08-31T07:39:28.140Z,484.00
2018-08-31T07:40:28.025Z,472.00
2018-08-31T07:41:28.050Z,468.00
2018-08-31T07:42:28.090Z,464.00
2018-08-31T07:43:28.048Z,464.00
2018-08-31T07:44:33.445Z,472.00
2018-08-31T07:45:28.307Z,484.00
2018-08-31T07:46:28.064Z,496.00
2018-08-31T07:47:27.933Z,512.00
2018-08-31T07:48:27.950Z,536.00
2018-08-31T07:49:27.941Z,560.00
2018-08-31T07:50:27.955Z,580.00
2018-08-31T07:51:28.770Z,608.00
2018-08-31T07:52:31.102Z,668.00
2018-08-31T07:53:27.886Z,728.00
2018-08-31T07:54:37.579Z,748.00
2018-08-31T07:55:27.851Z,844.00
2018-08-31T07:56:27.897Z,892.00
2018-08-31T07:57:27.855Z,936.00
2018-08-31T07:58:27.809Z,944.00
2018-08-31T07:59:27.810Z,976.00
2018-08-31T08:00:27.820Z,1028.00
2018-08-31T08:01:27.849Z,1096.00
2018-08-31T08:02:27.843Z,1172.00
2018-08-31T08:03:27.743Z,1224.00
2018-08-31T08:04:28.068Z,1216.00
2018-08-31T08:05:27.829Z,1216.00
2018-08-31T08:06:32.557Z,1228.00
2018-08-31T08:07:27.834Z,1312.00
2018-08-31T08:08:27.722Z,1328.00
2018-08-31T08:09:27.680Z,1304.00
2018-08-31T08:10:27.677Z,1288.00
2018-08-31T08:11:29.126Z,1216.00
2018-08-31T08:12:27.681Z,1264.00
2018-08-31T08:13:28.075Z,1280.00
2018-08-31T08:14:27.695Z,1264.00
2018-08-31T08:15:27.622Z,1252.00
2018-08-31T08:16:27.698Z,1280.00
2018-08-31T08:17:27.613Z,1512.00
2018-08-31T08:18:27.590Z,1728.00
2018-08-31T08:19:27.624Z,1696.00
2018-08-31T08:20:27.617Z,1852.00
2018-08-31T08:21:27.625Z,1956.00
2018-08-31T08:22:27.529Z,1968.00
2018-08-31T08:23:27.528Z,1992.00
2018-08-31T08:24:27.629Z,2040.00
2018-08-31T08:25:27.546Z,2012.00
2018-08-31T08:26:27.527Z,2040.00
2018-08-31T08:27:27.503Z,2068.00
2018-08-31T08:28:27.632Z,2104.00
2018-08-31T08:29:27.477Z,2140.00
2018-08-31T08:30:27.476Z,2180.00
2018-08-31T08:31:27.499Z,2260.00
2018-08-31T08:32:27.430Z,2304.00
2018-08-31T08:33:27.665Z,2308.00
2018-08-31T08:34:27.431Z,2268.00
2018-08-31T08:35:27.440Z,2296.00
2018-08-31T08:36:27.420Z,2332.00
2018-08-31T08:37:27.606Z,2376.00
2018-08-31T08:38:27.426Z,2340.00
2018-08-31T08:41:51.402Z,2512.00
2018-08-31T08:42:54.370Z,2432.00
2018-08-31T08:43:51.312Z,2448.00
2018-08-31T08:44:51.199Z,2432.00
2018-08-31T08:45:51.211Z,2344.00
2018-08-31T08:46:51.277Z,2360.00
2018-08-31T08:47:51.160Z,2412.00
2018-08-31T08:48:51.213Z,2388.00
2018-08-31T08:49:51.289Z,2468.00
2018-08-31T08:50:51.159Z,2172.00
2018-08-31T08:51:51.132Z,2484.00
2018-08-31T08:52:51.156Z,2576.00
2018-08-31T08:53:51.207Z,2616.00
2018-08-31T08:54:51.145Z,2664.00
2018-08-31T08:55:51.117Z,2668.00
2018-08-31T08:56:51.117Z,2652.00
2018-08-31T08:57:54.101Z,2684.00
2018-08-31T08:58:51.045Z,2568.00
2018-08-31T08:59:51.122Z,2584.00
2018-08-31T09:00:51.130Z,2556.00
2018-08-31T09:01:51.128Z,2580.00
2018-08-31T09:02:54.087Z,2596.00
2018-08-31T09:03:51.085Z,2584.00
2018-08-31T09:04:51.032Z,2552.00
2018-08-31T09:05:51.112Z,2532.00
2018-08-31T09:06:55.769Z,2520.00
2018-08-31T09:07:51.117Z,2504.00
2018-08-31T09:08:50.992Z,2544.00
2018-08-31T09:09:50.974Z,2508.00
2018-08-31T09:10:51.223Z,2532.00
2018-08-31T09:11:52.673Z,2472.00
2018-08-31T09:12:50.920Z,2400.00
2018-08-31T09:13:50.935Z,2360.00
2018-08-31T09:14:51.327Z,2108.00
2018-08-31T09:15:50.894Z,1392.00
2018-08-31T09:16:50.932Z,1528.00
2018-08-31T09:17:51.772Z,1084.00
2018-08-31T09:18:50.866Z,1072.00
2018-08-31T09:19:50.916Z,912.00
2018-08-31T09:20:50.853Z,1440.00
2018-08-31T09:21:50.864Z,1748.00
2018-08-31T09:24:02.421Z,2048.00
2018-08-31T09:24:53.926Z,1880.00
2018-08-31T09:25:50.811Z,908.00
2018-08-31T09:26:53.785Z,856.00
2018-08-31T09:27:52.799Z,848.00
2018-08-31T09:28:50.812Z,836.00
2018-08-31T09:29:50.862Z,868.00
2018-08-31T09:30:50.710Z,1396.00
2018-08-31T09:31:50.794Z,1836.00
2018-08-31T09:32:50.719Z,2036.00
2018-08-31T09:33:50.786Z,2092.00
2018-08-31T09:34:50.666Z,2076.00
2018-08-31T09:35:50.783Z,1648.00
2018-08-31T09:36:50.706Z,1992.00
2018-08-31T09:37:50.705Z,1856.00
2018-08-31T09:38:50.651Z,1884.00
2018-08-31T09:39:50.665Z,1860.00
2018-08-31T09:40:50.714Z,1820.00
2018-08-31T09:41:50.775Z,1724.00
2018-08-31T09:42:52.497Z,1644.00
2018-08-31T09:44:31.376Z,920.00
2018-08-31T09:46:12.569Z,868.00
2018-08-31T09:47:03.506Z,888.00
2018-08-31T09:48:03.283Z,928.00
2018-08-31T09:49:03.289Z,980.00
2018-08-31T09:50:03.396Z,1460.00
2018-08-31T09:51:03.593Z,1004.00
2018-08-31T09:52:03.290Z,996.00
2018-08-31T09:53:03.281Z,1016.00
2018-08-31T09:54:03.201Z,1568.00
2018-08-31T09:55:03.155Z,1544.00
2018-08-31T09:56:03.179Z,1560.00
2018-08-31T09:57:03.172Z,1580.00
2018-08-31T09:58:03.129Z,1600.00
2018-08-31T09:59:03.195Z,1608.00
2018-08-31T10:00:03.249Z,1588.00
2018-08-31T10:01:03.128Z,1548.00
2018-08-31T10:02:03.076Z,1512.00
2018-08-31T10:03:03.096Z,1520.00
2018-08-31T10:04:03.130Z,1528.00
2018-08-31T10:05:03.128Z,1492.00
2018-08-31T10:06:03.057Z,1516.00
2018-08-31T10:07:07.874Z,1488.00
2018-08-31T10:08:03.070Z,1468.00
2018-08-31T10:09:03.008Z,1464.00
2018-08-31T10:10:03.052Z,1380.00
2018-08-31T10:11:03.030Z,1220.00
2018-08-31T10:12:02.990Z,1164.00
2018-08-31T10:13:03.039Z,1120.00
2018-08-31T10:14:02.996Z,1132.00
2018-08-31T10:15:02.947Z,1148.00
2018-08-31T10:16:02.952Z,1148.00
2018-08-31T10:17:03.105Z,1136.00
2018-08-31T10:18:03.102Z,1192.00
2018-08-31T10:19:02.967Z,1224.00
2018-08-31T10:20:02.968Z,1280.00
2018-08-31T10:21:02.900Z,1300.00
2018-08-31T10:22:02.857Z,1296.00
2018-08-31T10:23:03.026Z,1264.00
2018-08-31T10:24:02.865Z,1240.00
2018-08-31T10:25:03.073Z,1212.00
2018-08-31T10:26:02.826Z,1192.00
2018-08-31T10:27:02.799Z,1200.00
2018-08-31T10:28:02.782Z,1192.00
2018-08-31T10:29:02.837Z,1180.00
2018-08-31T10:30:02.763Z,1164.00
2018-08-31T10:31:02.780Z,1148.00
2018-08-31T10:32:02.874Z,1144.00
2018-08-31T10:33:02.744Z,1140.00
2018-08-31T10:34:04.509Z,1116.00
2018-08-31T10:35:18.036Z,1100.00
2018-08-31T10:36:02.750Z,1108.00
2018-08-31T10:37:02.745Z,1128.00
2018-08-31T10:38:03.641Z,1132.00
2018-08-31T10:39:02.706Z,1124.00
2018-08-31T10:40:02.707Z,1132.00
2018-08-31T10:41:02.685Z,1128.00
2018-08-31T10:42:03.750Z,1120.00
2018-08-31T10:43:04.892Z,1108.00
2018-08-31T10:44:04.657Z,1084.00
2018-08-31T10:45:05.278Z,1068.00
2018-08-31T10:46:05.820Z,1064.00
2018-08-31T10:57:12.128Z,1076.00
2018-08-31T10:58:00.783Z,1092.00
2018-08-31T10:59:01.067Z,1104.00
2018-08-31T11:00:00.489Z,1104.00
2018-08-31T11:01:00.657Z,1000.00
2018-08-31T11:02:00.504Z,1060.00
2018-08-31T11:03:00.431Z,1112.00
2018-08-31T11:04:00.432Z,1000.00
2018-08-31T11:05:00.549Z,1136.00
2018-08-31T11:06:00.427Z,1160.00
2018-08-31T11:07:00.392Z,1152.00
2018-08-31T11:08:05.222Z,1140.00
2018-08-31T11:09:00.414Z,1124.00
2018-08-31T11:10:00.365Z,1108.00
2018-08-31T11:11:00.495Z,1104.00
2018-08-31T11:12:01.601Z,1104.00
2018-08-31T11:13:00.516Z,1096.00
2018-08-31T11:14:00.676Z,1112.00
2018-08-31T11:15:00.336Z,1124.00
2018-08-31T11:16:00.423Z,1132.00
2018-08-31T11:17:00.284Z,1120.00
2018-08-31T11:18:00.265Z,1120.00
2018-08-31T11:19:00.328Z,1128.00
2018-08-31T11:20:03.649Z,1140.00
2018-08-31T11:21:00.352Z,1148.00
2018-08-31T11:23:14.096Z,1144.00
2018-08-31T11:24:13.634Z,1128.00
2018-08-31T11:25:13.399Z,1132.00
2018-08-31T11:26:13.902Z,1128.00
2018-08-31T11:27:13.360Z,1128.00
2018-08-31T11:28:13.447Z,1124.00
2018-08-31T11:29:13.183Z,1116.00
2018-08-31T11:30:13.262Z,1104.00
2018-08-31T11:31:16.185Z,1032.00
2018-08-31T11:32:13.163Z,972.00
2018-08-31T11:33:13.224Z,956.00
2018-08-31T11:34:13.123Z,928.00
2018-08-31T11:35:13.129Z,952.00
2018-08-31T11:36:13.206Z,1012.00
2018-08-31T11:37:13.178Z,1012.00
2018-08-31T11:38:13.176Z,996.00
2018-08-31T11:39:13.125Z,996.00
2018-08-31T11:40:13.117Z,1032.00
2018-08-31T11:42:23.967Z,932.00
2018-08-31T11:43:23.209Z,1068.00
2018-08-31T11:44:23.900Z,1120.00
2018-08-31T11:45:22.391Z,1100.00
2018-08-31T11:47:32.195Z,1072.00
2018-08-31T11:48:32.376Z,1068.00
2018-08-31T11:49:31.814Z,1072.00
2018-08-31T11:50:31.767Z,1068.00
2018-08-31T11:51:34.036Z,1072.00
2018-08-31T11:52:31.686Z,1072.00
2018-08-31T11:53:35.390Z,1072.00
2018-08-31T11:54:31.674Z,1072.00
2018-08-31T11:55:33.942Z,1080.00
2018-08-31T11:56:41.511Z,1096.00
2018-08-31T11:57:56.049Z,1132.00
2018-08-31T11:58:33.878Z,1140.00
2018-08-31T11:59:58.656Z,1144.00
2018-08-31T12:00:33.442Z,1136.00
2018-08-31T12:01:31.818Z,1132.00
2018-08-31T12:02:31.737Z,1132.00
2018-08-31T12:03:31.638Z,1136.00
2018-08-31T12:04:31.579Z,1144.00
2018-08-31T12:05:34.666Z,1136.00
2018-08-31T12:06:31.877Z,1120.00
2018-08-31T12:07:31.652Z,1116.00
2018-08-31T12:08:36.353Z,1116.00
2018-08-31T12:09:31.621Z,1112.00
2018-08-31T12:10:31.492Z,1108.00
2018-08-31T12:11:31.485Z,1096.00
2018-08-31T12:12:52.739Z,1084.00
2018-08-31T12:13:31.532Z,1080.00
2018-08-31T12:14:31.535Z,1080.00
2018-08-31T12:15:31.526Z,1076.00
2018-08-31T12:16:31.907Z,1052.00
2018-08-31T12:17:31.563Z,1052.00
2018-08-31T12:18:31.460Z,1044.00
2018-08-31T12:19:31.501Z,1048.00
2018-08-31T12:20:34.637Z,1044.00
2018-08-31T12:21:31.381Z,1044.00
2018-08-31T12:22:31.395Z,1040.00
2018-08-31T12:23:31.370Z,1048.00
2018-08-31T12:24:31.411Z,1036.00
2018-08-31T12:25:31.352Z,1028.00
2018-08-31T12:26:31.452Z,1028.00
2018-08-31T12:27:36.279Z,1028.00
2018-08-31T12:30:01.332Z,1028.00
2018-08-31T12:30:40.165Z,1028.00
2018-08-31T12:31:40.181Z,1020.00
2018-08-31T12:32:40.272Z,1004.00
2018-08-31T12:33:40.168Z,1000.00
2018-08-31T12:34:40.069Z,988.00
2018-08-31T12:35:40.616Z,984.00
2018-08-31T12:36:40.166Z,976.00
2018-08-31T12:37:40.062Z,976.00
2018-08-31T12:38:40.018Z,976.00
2018-08-31T12:39:40.037Z,972.00
2018-08-31T12:40:40.028Z,968.00
2018-08-31T12:41:40.116Z,964.00
2018-08-31T12:42:40.036Z,968.00
2018-08-31T12:43:40.400Z,968.00
2018-08-31T12:44:39.987Z,968.00
2018-08-31T12:45:40.040Z,964.00
2018-08-31T12:46:40.035Z,968.00
2018-08-31T12:47:40.073Z,964.00
2018-08-31T12:48:40.007Z,960.00
2018-08-31T12:49:39.896Z,808.00
2018-08-31T12:50:39.937Z,960.00
2018-08-31T12:51:43.308Z,956.00
2018-08-31T12:52:39.960Z,952.00
2018-08-31T12:53:39.925Z,948.00
2018-08-31T12:54:39.922Z,944.00
2018-08-31T12:55:39.907Z,940.00
2018-08-31T12:56:39.900Z,932.00
2018-08-31T12:57:39.836Z,924.00
2018-08-31T12:58:39.907Z,908.00
2018-08-31T12:59:39.856Z,896.00
2018-08-31T13:00:39.823Z,880.00
2018-08-31T13:01:39.847Z,876.00
2018-08-31T13:02:39.788Z,872.00